Terminal Aerodrome Forecast
Issued by NWS

Home | Current Version | Previous Version | Graphics & Text | Print | Product List | Glossary On
Versions: 1 2 3 4 5 6 7 8 9 10 11 12 13 14 15 16 17
279
FTUS43 KICT 060913 AAA
TAFRSL
TAF AMD
KRSL 060913Z 0609/0706 35012KT P6SM SKC
     FM062200 01006KT P6SM SCT200
     FM070200 09004KT P6SM BKN100=

USA.gov is the U.S. government's official web portal to all federal, state and local government web resources and services.